createdAt,value
2023-05-07T00:01:35.355Z,45.22
2023-05-07T00:03:37.607Z,44.93
2023-05-07T00:05:40.232Z,45.17
2023-05-07T00:07:41.729Z,45.18
2023-05-07T00:09:43.264Z,45.30
2023-05-07T00:11:45.137Z,45.34
2023-05-07T00:13:46.851Z,45.36
2023-05-07T00:15:48.408Z,45.24
2023-05-07T00:17:50.099Z,45.29
2023-05-07T00:19:51.750Z,45.35
2023-05-07T00:21:54.902Z,45.35
2023-05-07T00:23:56.409Z,45.33
2023-05-07T00:25:57.999Z,45.40
2023-05-07T00:28:04.506Z,45.45
2023-05-07T00:30:07.208Z,45.47
2023-05-07T00:32:10.088Z,45.45
2023-05-07T00:34:11.616Z,45.47
2023-05-07T00:36:13.270Z,45.42
2023-05-07T00:38:15.018Z,45.60
2023-05-07T00:40:16.636Z,45.60
2023-05-07T00:42:18.049Z,45.65
2023-05-07T00:44:19.900Z,45.59
2023-05-07T00:46:22.163Z,45.57
2023-05-07T00:48:25.370Z,45.31
2023-05-07T00:50:30.758Z,45.56
2023-05-07T00:52:32.381Z,45.70
2023-05-07T00:54:34.919Z,45.73
2023-05-07T00:56:37.220Z,45.63
2023-05-07T00:58:39.067Z,45.75
2023-05-07T01:00:40.610Z,45.67
2023-05-07T01:02:43.276Z,45.66
2023-05-07T01:04:45.362Z,45.87
2023-05-07T01:06:47.418Z,45.92
2023-05-07T01:08:51.591Z,45.83
2023-05-07T01:10:53.970Z,45.78
2023-05-07T01:12:58.372Z,45.82
2023-05-07T01:14:59.979Z,45.87
2023-05-07T01:17:01.958Z,45.78
2023-05-07T01:19:04.316Z,45.74
2023-05-07T01:21:09.138Z,45.76
2023-05-07T01:23:12.104Z,45.80
2023-05-07T01:25:14.657Z,45.92
2023-05-07T01:27:20.807Z,45.92
2023-05-07T01:29:25.258Z,46.21
2023-05-07T01:31:27.288Z,46.00
2023-05-07T01:33:32.791Z,46.05
2023-05-07T01:35:41.672Z,46.30
2023-05-07T01:37:43.193Z,46.07
2023-05-07T01:39:45.518Z,46.20
2023-05-07T01:41:50.254Z,46.18
2023-05-07T01:43:53.218Z,46.25
2023-05-07T01:45:55.388Z,46.27
2023-05-07T01:47:58.737Z,46.15
2023-05-07T01:50:00.646Z,46.30
2023-05-07T01:52:02.897Z,46.26
2023-05-07T01:54:04.414Z,46.31
2023-05-07T01:56:09.394Z,46.35
2023-05-07T01:58:13.459Z,46.37
2023-05-07T02:00:18.559Z,46.35
2023-05-07T02:02:20.470Z,46.44
2023-05-07T02:04:22.632Z,46.49
2023-05-07T02:06:25.935Z,46.56
2023-05-07T02:08:32.061Z,46.53
2023-05-07T02:10:33.974Z,46.46
2023-05-07T02:12:35.844Z,46.76
2023-05-07T02:14:37.388Z,46.59
2023-05-07T02:16:39.068Z,46.61
2023-05-07T02:18:41.213Z,46.48
2023-05-07T02:20:42.762Z,46.50
2023-05-07T02:22:44.228Z,46.53
2023-05-07T02:24:45.910Z,46.57
2023-05-07T02:26:47.490Z,46.59
2023-05-07T02:28:49.156Z,46.66
2023-05-07T02:30:50.666Z,46.77
2023-05-07T02:32:52.922Z,46.76
2023-05-07T02:34:54.738Z,46.75
2023-05-07T02:36:56.675Z,46.77
2023-05-07T02:39:01.311Z,46.73
2023-05-07T02:41:03.444Z,46.79
2023-05-07T02:43:05.240Z,47.04
2023-05-07T02:45:08.716Z,46.97
2023-05-07T02:47:11.425Z,46.97
2023-05-07T02:49:13.440Z,46.91
2023-05-07T02:51:15.254Z,46.92
2023-05-07T02:53:17.894Z,46.80
2023-05-07T02:55:19.486Z,46.91
2023-05-07T02:57:23.965Z,46.78
2023-05-07T02:59:27.145Z,46.88
2023-05-07T03:01:28.989Z,46.93
2023-05-07T03:03:36.876Z,47.05
2023-05-07T03:06:05.538Z,47.26
2023-05-07T03:08:07.838Z,47.03
2023-05-07T03:10:09.626Z,47.06
2023-05-07T03:12:11.375Z,47.15
2023-05-07T03:14:13.084Z,47.20
2023-05-07T03:16:14.719Z,47.54
2023-05-07T03:18:16.405Z,47.22
2023-05-07T03:20:18.172Z,47.19
2023-05-07T03:22:19.764Z,47.22
2023-05-07T03:24:21.739Z,47.22
2023-05-07T03:26:26.222Z,47.25
2023-05-07T03:28:27.712Z,47.39
2023-05-07T03:30:34.234Z,47.28
2023-05-07T03:32:36.832Z,47.25
2023-05-07T03:34:42.308Z,47.23
2023-05-07T03:36:50.357Z,47.38
2023-05-07T03:38:54.547Z,47.29
2023-05-07T03:41:02.072Z,47.35
2023-05-07T03:43:04.256Z,47.35
2023-05-07T03:45:09.646Z,47.41
2023-05-07T03:47:12.254Z,47.32
2023-05-07T03:49:14.336Z,47.48
2023-05-07T03:51:16.501Z,47.55
2023-05-07T03:53:18.403Z,47.43
2023-05-07T03:55:20.035Z,47.56
2023-05-07T03:57:26.583Z,47.41
2023-05-07T03:59:28.473Z,47.56
2023-05-07T04:01:34.020Z,47.50
2023-05-07T04:03:38.169Z,47.58
2023-05-07T04:05:40.102Z,47.61
2023-05-07T04:07:41.874Z,47.62
2023-05-07T04:09:43.996Z,47.72
2023-05-07T04:11:46.414Z,47.65
2023-05-07T04:13:48.331Z,47.55
2023-05-07T04:15:53.633Z,47.46
2023-05-07T04:17:55.772Z,47.63
2023-05-07T04:19:58.914Z,47.73
2023-05-07T04:22:08.799Z,47.33
2023-05-07T04:24:10.505Z,47.39
2023-05-07T04:26:12.122Z,47.57
2023-05-07T04:28:17.080Z,47.65
2023-05-07T04:30:21.242Z,47.57
2023-05-07T04:32:26.102Z,47.50
2023-05-07T04:34:32.675Z,47.80
2023-05-07T04:36:36.488Z,47.73
2023-05-07T04:38:43.198Z,47.67
2023-05-07T04:40:46.170Z,47.70
2023-05-07T04:42:51.252Z,47.69
2023-05-07T04:44:54.535Z,47.89
2023-05-07T04:46:56.894Z,48.13
2023-05-07T04:48:58.603Z,48.09
2023-05-07T04:51:00.623Z,48.15
2023-05-07T04:53:02.419Z,48.03
2023-05-07T04:55:04.276Z,48.31
2023-05-07T04:57:10.379Z,48.23
2023-05-07T04:59:12.380Z,48.06
2023-05-07T05:01:14.320Z,48.05
2023-05-07T05:03:16.957Z,47.84
2023-05-07T05:05:18.702Z,47.87
2023-05-07T05:07:23.014Z,47.81
2023-05-07T05:09:24.510Z,47.96
2023-05-07T05:11:28.584Z,47.98
2023-05-07T05:13:31.327Z,47.97
2023-05-07T05:15:34.173Z,47.90
2023-05-07T05:17:37.612Z,47.91
2023-05-07T05:19:41.864Z,48.06
2023-05-07T05:21:43.667Z,47.93
2023-05-07T05:23:46.388Z,47.94
2023-05-07T05:25:57.414Z,47.98
2023-05-07T05:28:01.278Z,47.90
2023-05-07T05:30:04.895Z,47.90
2023-05-07T05:32:07.157Z,48.06
2023-05-07T05:34:08.731Z,47.99
2023-05-07T05:36:13.046Z,47.94
2023-05-07T05:38:15.233Z,47.94
2023-05-07T05:40:17.068Z,47.85
2023-05-07T05:42:18.788Z,47.89
2023-05-07T05:44:20.751Z,47.89
2023-05-07T05:46:22.935Z,47.69
2023-05-07T05:48:26.684Z,47.79
2023-05-07T05:50:28.331Z,47.53
2023-05-07T05:52:30.194Z,47.49
2023-05-07T05:54:32.349Z,47.63
2023-05-07T05:56:34.252Z,47.62
2023-05-07T05:58:36.041Z,47.62
2023-05-07T06:00:41.064Z,47.71
2023-05-07T06:02:43.989Z,47.72
2023-05-07T06:04:46.310Z,47.63
2023-05-07T06:06:52.228Z,47.56
2023-05-07T06:08:53.871Z,47.57
2023-05-07T06:11:02.519Z,47.34
2023-05-07T06:13:05.994Z,47.21
2023-05-07T06:15:09.424Z,47.17
2023-05-07T06:17:11.093Z,47.21
2023-05-07T06:19:12.708Z,47.42
2023-05-07T06:21:15.900Z,47.13
2023-05-07T06:23:18.042Z,47.07
2023-05-07T06:25:20.077Z,47.34
2023-05-07T06:27:21.538Z,47.23
2023-05-07T06:29:23.704Z,47.26
2023-05-07T06:31:32.085Z,47.18
2023-05-07T06:33:37.759Z,47.21
2023-05-07T06:35:39.729Z,47.27
2023-05-07T06:37:47.762Z,47.15
2023-05-07T06:39:54.152Z,46.88
2023-05-07T06:41:55.694Z,47.06
2023-05-07T06:44:02.719Z,46.96
2023-05-07T06:46:16.667Z,46.96
2023-05-07T06:48:18.176Z,47.12
2023-05-07T06:50:35.283Z,46.73
2023-05-07T06:52:36.923Z,46.94
2023-05-07T06:54:40.428Z,46.52
2023-05-07T06:56:43.074Z,46.78
2023-05-07T06:58:47.605Z,46.64
2023-05-07T07:00:50.101Z,46.59
2023-05-07T07:02:51.751Z,46.56
2023-05-07T07:04:56.396Z,46.57
2023-05-07T07:06:58.036Z,46.85
2023-05-07T07:09:00.796Z,46.80
2023-05-07T07:11:02.556Z,46.43
2023-05-07T07:13:05.172Z,46.57
2023-05-07T07:15:07.756Z,46.46
2023-05-07T07:17:09.384Z,46.68
2023-05-07T07:19:10.936Z,46.61
2023-05-07T07:21:12.866Z,46.67
2023-05-07T07:23:15.204Z,46.79
2023-05-07T07:25:17.023Z,46.43
2023-05-07T07:27:19.130Z,46.76
2023-05-07T07:29:20.743Z,46.89
2023-05-07T07:31:23.183Z,46.80
2023-05-07T07:33:28.420Z,46.57
2023-05-07T07:35:30.950Z,46.89
2023-05-07T07:37:35.423Z,46.82
2023-05-07T07:39:38.750Z,46.88
2023-05-07T07:41:42.457Z,46.78
2023-05-07T07:43:44.330Z,46.71
2023-05-07T07:45:46.914Z,46.62
2023-05-07T07:47:48.662Z,46.48
2023-05-07T07:49:50.551Z,46.99
2023-05-07T07:51:52.162Z,46.88
2023-05-07T07:53:54.045Z,46.70
2023-05-07T07:55:59.518Z,46.45
2023-05-07T07:58:04.826Z,46.52
2023-05-07T08:00:08.370Z,46.75
2023-05-07T08:02:19.011Z,46.52
2023-05-07T08:04:21.865Z,46.48
2023-05-07T08:06:24.214Z,46.52
2023-05-07T08:08:29.811Z,46.83
2023-05-07T08:10:35.491Z,46.92
2023-05-07T08:12:44.162Z,47.12
2023-05-07T08:14:54.991Z,47.40
2023-05-07T08:16:57.524Z,47.23
2023-05-07T08:18:59.350Z,47.27
2023-05-07T08:21:02.188Z,47.33
2023-05-07T08:23:04.295Z,47.62
2023-05-07T08:25:06.217Z,47.62
2023-05-07T08:27:08.497Z,47.46
2023-05-07T08:29:10.113Z,47.22
2023-05-07T08:31:12.022Z,47.22
2023-05-07T08:33:17.255Z,46.95
2023-05-07T08:35:19.352Z,46.69
2023-05-07T08:37:21.238Z,46.63
2023-05-07T08:39:23.040Z,46.45
2023-05-07T08:41:27.242Z,46.36
2023-05-07T08:43:30.080Z,45.71
2023-05-07T08:45:34.494Z,45.95
2023-05-07T08:47:45.744Z,45.61
2023-05-07T08:49:49.748Z,45.55
2023-05-07T08:51:52.491Z,45.19
2023-05-07T08:53:55.327Z,45.40
2023-05-07T08:56:03.399Z,45.02
2023-05-07T08:58:05.756Z,45.24
2023-05-07T09:00:13.577Z,45.46
2023-05-07T09:02:19.413Z,45.71
2023-05-07T09:04:24.135Z,45.64
2023-05-07T09:06:26.073Z,45.66
2023-05-07T09:08:28.489Z,45.01
2023-05-07T09:10:38.438Z,45.15
2023-05-07T09:12:41.825Z,44.93
2023-05-07T09:14:46.807Z,44.73
2023-05-07T09:16:48.658Z,44.71
2023-05-07T09:18:53.387Z,44.81
2023-05-07T09:20:56.169Z,44.90
2023-05-07T09:22:57.966Z,44.87
2023-05-07T09:25:00.974Z,44.59
2023-05-07T09:27:05.585Z,44.30
2023-05-07T09:29:08.551Z,44.05
2023-05-07T09:33:37.372Z,43.32
2023-05-07T09:35:40.748Z,43.60
2023-05-07T09:37:46.881Z,43.09
2023-05-07T09:39:50.714Z,43.01
2023-05-07T09:41:56.082Z,43.04
2023-05-07T09:44:08.146Z,42.72
2023-05-07T09:46:25.003Z,42.85
2023-05-07T09:48:36.497Z,42.54
2023-05-07T09:50:49.789Z,42.23
2023-05-07T09:52:54.887Z,42.30
2023-05-07T09:55:00.072Z,42.17
2023-05-07T09:57:04.122Z,42.01
2023-05-07T09:59:08.040Z,41.82
2023-05-07T10:01:12.137Z,41.40
2023-05-07T10:03:19.792Z,41.90
2023-05-07T10:05:29.897Z,41.98
2023-05-07T10:07:33.909Z,41.88
2023-05-07T10:09:43.250Z,42.00
2023-05-07T10:11:51.356Z,41.87
2023-05-07T10:13:54.462Z,41.81
2023-05-07T10:15:56.477Z,41.86
2023-05-07T10:18:00.820Z,42.32
2023-05-07T10:20:05.088Z,42.41
2023-05-07T10:22:08.856Z,42.42
2023-05-07T10:24:35.009Z,42.44
2023-05-07T10:26:48.270Z,42.57
2023-05-07T10:29:25.351Z,42.86
2023-05-07T10:31:48.917Z,43.11
2023-05-07T10:33:52.261Z,42.77
2023-05-07T10:36:01.695Z,42.60
2023-05-07T10:38:06.018Z,42.08
2023-05-07T10:40:11.591Z,41.95
2023-05-07T10:42:14.864Z,41.43
2023-05-07T10:44:29.709Z,41.27
2023-05-07T10:46:36.508Z,41.06
2023-05-07T10:49:09.000Z,39.89
2023-05-07T10:51:35.320Z,40.59
2023-05-07T10:54:12.262Z,39.95
2023-05-07T10:56:22.107Z,39.87
2023-05-07T10:58:34.222Z,40.26
2023-05-07T11:00:51.349Z,39.82
2023-05-07T11:03:03.134Z,39.76
2023-05-07T11:05:22.072Z,39.40
2023-05-07T11:07:32.039Z,39.64
2023-05-07T11:09:53.874Z,39.21
2023-05-07T11:12:11.321Z,39.36
2023-05-07T11:14:55.852Z,38.96
2023-05-07T11:17:04.888Z,39.25
2023-05-07T11:19:17.186Z,39.14
2023-05-07T11:21:39.926Z,38.83
2023-05-07T11:23:59.735Z,39.11
2023-05-07T11:26:19.140Z,39.30
2023-05-07T11:28:21.437Z,39.40
2023-05-07T11:30:32.598Z,39.48
2023-05-07T11:32:34.895Z,39.55
2023-05-07T11:34:37.157Z,39.36
2023-05-07T11:36:44.782Z,39.44
2023-05-07T11:38:48.965Z,39.40
2023-05-07T11:40:51.984Z,39.24
2023-05-07T11:42:53.589Z,39.54
2023-05-07T11:44:55.394Z,39.17
2023-05-07T11:46:58.430Z,39.12
2023-05-07T11:49:01.738Z,39.45
2023-05-07T11:51:05.813Z,39.29
2023-05-07T11:53:13.867Z,39.33
2023-05-07T11:55:19.718Z,38.98
2023-05-07T11:57:22.051Z,39.17
2023-05-07T11:59:23.504Z,39.04
2023-05-07T12:01:25.005Z,38.88
2023-05-07T12:03:31.918Z,38.63
2023-05-07T12:05:38.392Z,38.87
2023-05-07T12:07:40.122Z,38.24
2023-05-07T12:09:42.800Z,38.80
2023-05-07T12:11:47.174Z,38.24
2023-05-07T12:13:49.025Z,38.37
2023-05-07T12:15:55.995Z,38.61
2023-05-07T12:17:57.762Z,38.68
2023-05-07T12:19:59.809Z,38.77
2023-05-07T12:22:03.911Z,38.55
2023-05-07T12:24:06.529Z,37.85
2023-05-07T12:26:09.481Z,38.15
2023-05-07T12:28:17.250Z,37.81
2023-05-07T12:30:18.907Z,37.66
2023-05-07T12:32:22.129Z,37.62
2023-05-07T12:34:26.496Z,37.88
2023-05-07T12:36:39.588Z,37.09
2023-05-07T12:38:41.811Z,37.65
2023-05-07T12:40:46.438Z,37.15
2023-05-07T12:42:47.928Z,37.21
2023-05-07T12:44:49.529Z,36.74
2023-05-07T12:46:52.536Z,36.48
2023-05-07T12:48:54.749Z,36.86
2023-05-07T12:50:57.749Z,36.30
2023-05-07T12:52:59.610Z,35.68
2023-05-07T12:55:08.472Z,35.69
2023-05-07T12:57:11.332Z,36.07
2023-05-07T12:59:15.990Z,35.46
2023-05-07T13:01:20.201Z,34.73
2023-05-07T13:03:32.005Z,34.59
2023-05-07T13:05:33.883Z,34.49
2023-05-07T13:07:35.949Z,34.43
2023-05-07T13:09:38.201Z,35.13
2023-05-07T13:11:39.718Z,35.71
2023-05-07T13:13:48.256Z,35.71
2023-05-07T13:15:49.973Z,35.87
2023-05-07T13:17:51.612Z,35.79
2023-05-07T13:19:53.695Z,35.98
2023-05-07T13:21:55.475Z,35.80
2023-05-07T13:23:56.987Z,35.66
2023-05-07T13:25:58.504Z,35.85
2023-05-07T13:28:10.083Z,35.78
2023-05-07T13:30:12.771Z,36.28
2023-05-07T13:32:14.510Z,35.84
2023-05-07T13:34:16.240Z,35.88
2023-05-07T13:36:17.739Z,36.25
2023-05-07T13:38:19.300Z,36.27
2023-05-07T13:40:21.318Z,35.85
2023-05-07T13:42:22.851Z,35.34
2023-05-07T13:44:24.351Z,35.63
2023-05-07T13:46:26.034Z,35.75
2023-05-07T13:48:27.927Z,35.21
2023-05-07T13:50:30.823Z,35.40
2023-05-07T13:52:35.650Z,35.87
2023-05-07T13:54:37.118Z,35.10
2023-05-07T13:56:38.695Z,35.00
2023-05-07T13:58:51.802Z,34.78
2023-05-07T14:00:58.245Z,35.11
2023-05-07T14:03:00.722Z,35.16
2023-05-07T14:05:02.766Z,34.39
2023-05-07T14:07:04.255Z,35.05
2023-05-07T14:09:05.953Z,34.93
2023-05-07T14:11:07.755Z,34.70
2023-05-07T14:13:11.792Z,33.97
2023-05-07T14:15:13.700Z,34.38
2023-05-07T14:17:15.247Z,33.37
2023-05-07T14:19:16.817Z,33.36
2023-05-07T14:21:18.379Z,33.26
2023-05-07T14:23:22.569Z,33.44
2023-05-07T14:25:24.165Z,33.44
2023-05-07T14:27:27.220Z,33.45
2023-05-07T14:29:29.560Z,33.55
2023-05-07T14:31:31.063Z,33.74
2023-05-07T14:33:34.898Z,33.98
2023-05-07T14:35:36.618Z,33.56
2023-05-07T14:37:38.288Z,34.10
2023-05-07T14:39:40.622Z,33.98
2023-05-07T14:41:42.058Z,33.60
2023-05-07T14:43:43.617Z,33.37
2023-05-07T14:45:45.768Z,33.73
2023-05-07T14:47:47.391Z,33.36
2023-05-07T14:49:49.473Z,33.32
2023-05-07T14:51:51.154Z,33.37
2023-05-07T14:53:55.691Z,33.10
2023-05-07T14:55:57.402Z,32.70
2023-05-07T14:57:59.180Z,32.77
2023-05-07T15:00:00.966Z,32.95
2023-05-07T15:02:05.449Z,32.78
2023-05-07T15:04:08.524Z,32.97
2023-05-07T15:06:10.088Z,33.15
2023-05-07T15:08:11.778Z,32.93
2023-05-07T15:10:13.573Z,33.27
2023-05-07T15:12:15.438Z,33.09
2023-05-07T15:14:17.187Z,33.38
2023-05-07T15:16:19.490Z,33.40
2023-05-07T15:18:22.853Z,33.40
2023-05-07T15:20:24.752Z,33.41
2023-05-07T15:22:26.472Z,33.44
2023-05-07T15:24:28.085Z,33.29
2023-05-07T15:26:30.297Z,33.38
2023-05-07T15:28:32.541Z,33.40
2023-05-07T15:30:35.321Z,33.31
2023-05-07T15:32:37.642Z,33.24
2023-05-07T15:34:39.434Z,33.34
2023-05-07T15:36:41.164Z,33.36
2023-05-07T15:38:43.290Z,33.28
2023-05-07T15:40:45.446Z,33.29
2023-05-07T15:42:47.412Z,33.41
2023-05-07T15:44:49.318Z,33.45
2023-05-07T15:46:50.932Z,33.57
2023-05-07T15:48:54.045Z,33.76
2023-05-07T15:50:56.085Z,33.61
2023-05-07T15:52:58.305Z,33.69
2023-05-07T15:55:03.528Z,33.77
2023-05-07T15:57:07.004Z,33.93
2023-05-07T15:59:10.086Z,33.69
2023-05-07T16:01:11.569Z,33.91
2023-05-07T16:03:13.475Z,33.90
2023-05-07T16:05:15.851Z,33.84
2023-05-07T16:07:17.527Z,33.77
2023-05-07T16:09:19.313Z,33.94
2023-05-07T16:11:21.444Z,33.76
2023-05-07T16:13:24.983Z,34.00
2023-05-07T16:15:26.696Z,33.78
2023-05-07T16:17:28.334Z,34.09
2023-05-07T16:19:30.196Z,33.93
2023-05-07T16:21:32.777Z,34.17
2023-05-07T16:23:34.436Z,34.17
2023-05-07T16:25:36.492Z,34.23
2023-05-07T16:27:38.102Z,34.29
2023-05-07T16:29:40.058Z,34.00
2023-05-07T16:31:45.827Z,34.14
2023-05-07T16:33:47.446Z,34.29
2023-05-07T16:35:53.031Z,34.08
2023-05-07T16:37:54.728Z,34.05
2023-05-07T16:40:00.766Z,34.44
2023-05-07T16:42:02.914Z,34.37
2023-05-07T16:44:04.708Z,34.05
2023-05-07T16:46:06.172Z,34.56
2023-05-07T16:48:08.446Z,34.53
2023-05-07T16:50:10.578Z,34.38
2023-05-07T16:52:12.046Z,34.46
2023-05-07T16:54:13.783Z,34.57
2023-05-07T16:56:15.498Z,34.33
2023-05-07T16:58:16.954Z,34.78
2023-05-07T17:00:18.512Z,34.96
2023-05-07T17:02:20.178Z,34.59
2023-05-07T17:04:21.957Z,34.55
2023-05-07T17:06:23.422Z,35.05
2023-05-07T17:08:25.320Z,34.85
2023-05-07T17:10:27.090Z,34.72
2023-05-07T17:12:29.299Z,34.82
2023-05-07T17:14:31.028Z,35.19
2023-05-07T17:16:32.654Z,34.80
2023-05-07T17:18:36.691Z,35.02
2023-05-07T17:20:39.936Z,34.60
2023-05-07T17:22:41.475Z,35.13
2023-05-07T17:24:43.016Z,34.81
2023-05-07T17:26:44.842Z,34.86
2023-05-07T17:28:46.571Z,34.73
2023-05-07T17:30:49.280Z,35.11
2023-05-07T17:32:50.902Z,35.32
2023-05-07T17:34:53.106Z,34.96
2023-05-07T17:36:54.696Z,35.00
2023-05-07T17:38:56.105Z,35.23
2023-05-07T17:41:01.883Z,35.40
2023-05-07T17:43:03.509Z,35.07
2023-05-07T17:45:05.674Z,35.63
2023-05-07T17:47:07.491Z,35.22
2023-05-07T17:49:09.134Z,35.25
2023-05-07T17:51:10.737Z,35.46
2023-05-07T17:53:13.126Z,35.37
2023-05-07T17:55:14.923Z,35.63
2023-05-07T17:57:16.561Z,35.36
2023-05-07T17:59:18.197Z,35.32
2023-05-07T18:01:20.837Z,35.67
2023-05-07T18:03:24.506Z,35.43
2023-05-07T18:05:26.866Z,35.92
2023-05-07T18:07:28.512Z,35.90
2023-05-07T18:09:30.401Z,35.79
2023-05-07T18:11:33.743Z,35.35
2023-05-07T18:13:35.484Z,35.47
2023-05-07T18:15:36.995Z,35.29
2023-05-07T18:17:38.528Z,35.67
2023-05-07T18:19:40.186Z,35.54
2023-05-07T18:21:41.686Z,35.71
2023-05-07T18:23:43.238Z,35.37
2023-05-07T18:25:47.980Z,35.44
2023-05-07T18:27:49.523Z,35.46
2023-05-07T18:29:52.010Z,35.44
2023-05-07T18:31:53.583Z,35.61
2023-05-07T18:33:56.077Z,35.51
2023-05-07T18:36:00.831Z,35.58
2023-05-07T18:38:02.641Z,35.64
2023-05-07T18:40:05.848Z,35.89
2023-05-07T18:42:08.827Z,36.05
2023-05-07T18:44:10.493Z,36.03
2023-05-07T18:46:12.755Z,36.14
2023-05-07T18:48:16.829Z,36.06
2023-05-07T18:50:21.529Z,36.18
2023-05-07T18:52:25.148Z,36.07
2023-05-07T18:54:27.069Z,35.93
2023-05-07T18:56:28.693Z,35.79
2023-05-07T18:58:30.514Z,36.05
2023-05-07T19:00:32.241Z,35.93
2023-05-07T19:02:33.779Z,35.79
2023-05-07T19:04:36.251Z,35.73
2023-05-07T19:06:37.934Z,36.11
2023-05-07T19:08:39.640Z,35.84
2023-05-07T19:10:41.389Z,35.90
2023-05-07T19:12:43.202Z,36.23
2023-05-07T19:14:47.750Z,36.11
2023-05-07T19:16:49.409Z,36.29
2023-05-07T19:18:51.678Z,36.18
2023-05-07T19:20:55.184Z,36.12
2023-05-07T19:22:57.197Z,36.18
2023-05-07T19:24:58.848Z,36.41
2023-05-07T19:27:04.506Z,36.06
2023-05-07T19:29:17.234Z,36.51
2023-05-07T19:31:21.323Z,36.45
2023-05-07T19:33:23.586Z,36.44
2023-05-07T19:35:25.426Z,36.31
2023-05-07T19:37:27.894Z,36.46
2023-05-07T19:39:29.448Z,36.28
2023-05-07T19:41:30.972Z,36.56
2023-05-07T19:43:41.169Z,36.40
2023-05-07T19:45:44.906Z,36.36
2023-05-07T19:47:48.793Z,36.57
2023-05-07T19:49:50.432Z,36.52
2023-05-07T19:51:52.320Z,36.71
2023-05-07T19:53:53.742Z,36.56
2023-05-07T19:56:06.037Z,36.57
2023-05-07T19:58:08.001Z,36.63
2023-05-07T20:00:13.693Z,36.75
2023-05-07T20:02:16.549Z,36.79
2023-05-07T20:04:18.079Z,36.77
2023-05-07T20:06:19.856Z,36.79
2023-05-07T20:08:22.093Z,36.94
2023-05-07T20:10:32.878Z,36.88
2023-05-07T20:12:37.322Z,37.01
2023-05-07T20:14:39.033Z,36.84
2023-05-07T20:16:40.729Z,36.95
2023-05-07T20:18:42.335Z,36.88
2023-05-07T20:20:45.066Z,36.79
2023-05-07T20:22:46.590Z,37.02
2023-05-07T20:24:48.334Z,36.84
2023-05-07T20:26:49.949Z,37.01
2023-05-07T20:28:51.426Z,36.92
2023-05-07T20:30:53.049Z,36.74
2023-05-07T20:32:54.694Z,36.91
2023-05-07T20:34:56.344Z,36.75
2023-05-07T20:36:57.871Z,36.88
2023-05-07T20:38:59.587Z,37.10
2023-05-07T20:41:14.323Z,36.99
2023-05-07T20:43:15.742Z,37.07
2023-05-07T20:45:20.870Z,37.15
2023-05-07T20:47:22.568Z,37.08
2023-05-07T20:49:24.259Z,37.04
2023-05-07T20:51:27.194Z,37.17
2023-05-07T20:53:29.962Z,37.31
2023-05-07T20:55:31.869Z,37.25
2023-05-07T20:57:33.382Z,37.16
2023-05-07T20:59:34.890Z,37.25
2023-05-07T21:01:36.404Z,37.25
2023-05-07T21:03:38.141Z,37.28
2023-05-07T21:05:39.778Z,37.25
2023-05-07T21:07:41.372Z,37.41
2023-05-07T21:09:43.185Z,37.42
2023-05-07T21:11:44.778Z,37.15
2023-05-07T21:13:46.361Z,37.65
2023-05-07T21:15:48.059Z,37.42
2023-05-07T21:17:49.693Z,37.21
2023-05-07T21:19:51.837Z,37.24
2023-05-07T21:21:57.704Z,37.20
2023-05-07T21:23:59.511Z,37.38
2023-05-07T21:26:01.319Z,37.74
2023-05-07T21:28:05.757Z,37.69
2023-05-07T21:30:08.069Z,37.78
2023-05-07T21:32:09.684Z,37.84
2023-05-07T21:34:11.171Z,37.52
2023-05-07T21:36:13.072Z,37.37
2023-05-07T21:38:14.522Z,37.54
2023-05-07T21:40:16.485Z,37.95
2023-05-07T21:42:18.033Z,37.66
2023-05-07T21:44:21.735Z,37.77
2023-05-07T21:46:23.314Z,37.72
2023-05-07T21:48:26.714Z,37.90
2023-05-07T21:50:28.242Z,38.04
2023-05-07T21:52:30.036Z,37.89
2023-05-07T21:54:31.679Z,38.09
2023-05-07T21:56:33.185Z,37.89
2023-05-07T21:58:34.805Z,38.28
2023-05-07T22:00:36.311Z,38.16
2023-05-07T22:02:38.258Z,38.26
2023-05-07T22:04:39.988Z,38.01
2023-05-07T22:06:41.704Z,38.38
2023-05-07T22:08:43.364Z,38.09
2023-05-07T22:10:44.969Z,38.44
2023-05-07T22:12:46.515Z,38.49
2023-05-07T22:14:48.355Z,38.26
2023-05-07T22:16:49.963Z,38.10
2023-05-07T22:18:54.087Z,38.46
2023-05-07T22:20:56.122Z,38.31
2023-05-07T22:22:57.643Z,38.56
2023-05-07T22:24:59.204Z,38.22
2023-05-07T22:27:03.168Z,38.25
2023-05-07T22:29:04.706Z,38.19
2023-05-07T22:31:06.729Z,38.68
2023-05-07T22:33:10.776Z,38.17
2023-05-07T22:35:12.453Z,38.44
2023-05-07T22:37:13.940Z,38.28
2023-05-07T22:39:15.687Z,38.53
2023-05-07T22:41:17.154Z,38.70
2023-05-07T22:43:21.532Z,38.68
2023-05-07T22:45:23.094Z,38.29
2023-05-07T22:47:24.652Z,38.36
2023-05-07T22:49:26.300Z,38.78
2023-05-07T22:51:28.340Z,38.82
2023-05-07T22:53:29.952Z,38.51
2023-05-07T22:55:31.628Z,38.67
2023-05-07T22:57:33.277Z,38.60
2023-05-07T22:59:36.862Z,38.69
2023-05-07T23:01:38.829Z,38.67
2023-05-07T23:03:40.990Z,39.13
2023-05-07T23:05:43.210Z,39.24
2023-05-07T23:07:44.648Z,38.80
2023-05-07T23:09:46.153Z,39.01
2023-05-07T23:11:47.744Z,39.41
2023-05-07T23:13:49.215Z,39.35
2023-05-07T23:15:51.656Z,39.40
2023-05-07T23:17:53.243Z,39.46
2023-05-07T23:19:54.895Z,39.32
2023-05-07T23:21:56.482Z,39.31
2023-05-07T23:23:57.925Z,39.36
2023-05-07T23:26:00.003Z,39.79
2023-05-07T23:28:03.210Z,39.80
2023-05-07T23:30:05.429Z,39.99
2023-05-07T23:32:07.298Z,39.89
2023-05-07T23:34:08.869Z,39.60
2023-05-07T23:36:10.370Z,39.78
2023-05-07T23:38:12.004Z,39.80
2023-05-07T23:40:13.802Z,39.72
2023-05-07T23:42:16.169Z,39.82
2023-05-07T23:44:17.678Z,39.77
2023-05-07T23:46:19.770Z,39.99
2023-05-07T23:48:21.288Z,39.87
2023-05-07T23:50:22.938Z,39.95
2023-05-07T23:52:24.502Z,40.02
2023-05-07T23:54:26.069Z,39.70
2023-05-07T23:56:27.777Z,39.91
2023-05-07T23:58:31.914Z,40.01
